createdAt,value
2023-04-24T00:02:20.505Z,18.80
2023-04-24T00:04:52.949Z,18.70
2023-04-24T00:07:25.543Z,18.80
2023-04-24T00:09:57.956Z,18.40
2023-04-24T00:12:30.861Z,20.60
2023-04-24T00:15:03.210Z,14.80
2023-04-24T00:17:35.680Z,13.60
2023-04-24T00:20:11.326Z,14.30
2023-04-24T00:22:43.474Z,17.10
2023-04-24T00:25:18.014Z,18.80
2023-04-24T00:27:53.192Z,19.80
2023-04-24T00:30:25.365Z,15.00
2023-04-24T00:32:57.802Z,17.10
2023-04-24T00:35:30.585Z,16.50
2023-04-24T00:38:03.290Z,17.20
2023-04-24T00:40:35.723Z,16.60
2023-04-24T00:43:09.993Z,16.50
2023-04-24T00:45:43.022Z,13.20
2023-04-24T00:48:15.937Z,15.90
2023-04-24T00:50:49.163Z,21.80
2023-04-24T00:53:21.845Z,18.90
2023-04-24T00:55:54.543Z,16.40
2023-04-24T00:58:27.758Z,19.80
2023-04-24T01:01:02.238Z,13.90
2023-04-24T01:03:38.614Z,18.10
2023-04-24T01:06:12.709Z,17.30
2023-04-24T01:08:48.259Z,14.40
2023-04-24T01:11:23.306Z,17.90
2023-04-24T01:13:55.554Z,18.20
2023-04-24T01:16:28.533Z,17.20
2023-04-24T01:19:01.055Z,19.00
2023-04-24T01:21:37.808Z,16.20
2023-04-24T01:24:10.716Z,19.50
2023-04-24T01:26:45.692Z,19.90
2023-04-24T01:29:18.680Z,22.10
2023-04-24T01:31:51.232Z,24.40
2023-04-24T01:34:23.505Z,27.90
2023-04-24T01:36:58.478Z,26.20
2023-04-24T01:39:31.396Z,26.70
2023-04-24T01:42:03.901Z,25.70
2023-04-24T01:44:37.282Z,27.20
2023-04-24T01:53:14.118Z,24.80
2023-04-24T01:55:46.454Z,26.60
2023-04-24T01:58:19.446Z,20.90
2023-04-24T02:00:52.042Z,26.80
2023-04-24T02:03:27.497Z,25.40
2023-04-24T02:06:00.688Z,21.70
2023-04-24T02:08:32.862Z,25.00
2023-04-24T02:11:05.340Z,26.40
2023-04-24T02:13:39.108Z,24.10
2023-04-24T02:16:12.145Z,24.00
2023-04-24T02:18:44.433Z,28.20
2023-04-24T02:21:19.227Z,28.40
2023-04-24T02:23:53.946Z,23.60
2023-04-24T02:26:26.323Z,23.80
2023-04-24T02:28:58.489Z,27.40
2023-04-24T02:31:30.695Z,29.20
2023-04-24T02:34:03.266Z,24.20
2023-04-24T02:36:35.406Z,24.20
2023-04-24T02:39:07.745Z,30.90
2023-04-24T02:41:39.932Z,21.70
2023-04-24T02:44:12.818Z,28.70
2023-04-24T02:46:45.856Z,30.10
2023-04-24T02:49:18.026Z,28.20
2023-04-24T02:51:50.559Z,25.60
2023-04-24T02:54:23.100Z,27.60
2023-04-24T02:56:55.347Z,22.80
2023-04-24T02:59:28.317Z,27.20
2023-04-24T03:02:01.215Z,23.80
2023-04-24T03:04:33.719Z,24.10
2023-04-24T03:07:06.758Z,24.40
2023-04-24T03:09:39.006Z,24.90
2023-04-24T03:12:11.279Z,26.00
2023-04-24T03:14:45.942Z,21.40
2023-04-24T03:17:19.013Z,23.60
2023-04-24T03:19:52.259Z,22.80
2023-04-24T03:22:27.137Z,28.60
2023-04-24T03:24:59.806Z,27.30
2023-04-24T03:27:33.827Z,33.10
2023-04-24T03:30:10.044Z,37.30
2023-04-24T03:32:48.915Z,32.60
2023-04-24T03:35:25.095Z,36.70
2023-04-24T03:37:57.379Z,35.60
2023-04-24T03:40:55.849Z,37.20
2023-04-24T03:43:57.814Z,40.50
2023-04-24T03:46:30.772Z,45.00
2023-04-24T03:49:04.676Z,41.40
2023-04-24T03:54:46.304Z,39.80
2023-04-24T03:57:19.169Z,35.60
2023-04-24T04:00:03.763Z,30.70
2023-04-24T04:02:46.915Z,29.40
2023-04-24T04:05:19.479Z,32.00
2023-04-24T04:07:51.584Z,32.60
2023-04-24T04:10:24.273Z,42.90
2023-04-24T04:12:56.465Z,40.00
2023-04-24T04:15:28.753Z,44.80
2023-04-24T04:18:01.754Z,43.50
2023-04-24T04:20:34.609Z,49.30
2023-04-24T04:23:06.804Z,43.20
2023-04-24T04:25:56.176Z,41.30
2023-04-24T04:28:39.096Z,41.50
2023-04-24T04:31:11.603Z,40.50
2023-04-24T04:33:43.822Z,42.90
2023-04-24T04:36:16.108Z,36.30
2023-04-24T04:38:50.304Z,44.00
2023-04-24T04:41:45.344Z,35.70
2023-04-24T04:44:17.875Z,41.10
2023-04-24T04:46:50.264Z,41.30
2023-04-24T04:49:29.424Z,48.00
2023-04-24T04:52:02.012Z,42.70
2023-04-24T04:54:34.415Z,49.60
2023-04-24T04:57:07.353Z,51.20
2023-04-24T04:59:39.770Z,42.40
2023-04-24T05:02:15.573Z,39.50
2023-04-24T05:04:48.939Z,45.60
2023-04-24T05:07:21.496Z,46.40
2023-04-24T05:09:54.913Z,47.10
2023-04-24T05:12:27.135Z,48.30
2023-04-24T05:14:59.513Z,51.10
2023-04-24T05:17:32.378Z,48.00
2023-04-24T05:20:06.432Z,41.50
2023-04-24T05:22:39.130Z,44.70
2023-04-24T05:25:13.592Z,31.20
2023-04-24T05:27:51.782Z,26.70
2023-04-24T05:30:23.966Z,26.00
2023-04-24T05:32:56.252Z,26.10
2023-04-24T05:35:28.324Z,25.80
2023-04-24T05:38:00.627Z,23.40
2023-04-24T05:40:32.676Z,25.50
2023-04-24T05:43:05.040Z,26.20
2023-04-24T05:45:37.800Z,26.90
2023-04-24T05:48:10.253Z,25.50
2023-04-24T05:50:43.491Z,29.10
2023-04-24T05:53:19.123Z,24.80
2023-04-24T05:55:51.458Z,38.20
2023-04-24T05:58:24.620Z,21.90
2023-04-24T06:00:57.065Z,23.20
2023-04-24T06:03:29.671Z,21.30
2023-04-24T06:06:01.925Z,18.80
2023-04-24T06:08:34.204Z,17.20
2023-04-24T06:11:07.033Z,18.60
2023-04-24T06:13:39.377Z,19.30
2023-04-24T06:16:37.693Z,21.30
2023-04-24T06:19:18.801Z,19.50
2023-04-24T06:21:51.319Z,21.10
2023-04-24T06:24:23.480Z,16.70
2023-04-24T06:26:58.374Z,22.30
2023-04-24T06:29:30.727Z,17.50
2023-04-24T06:32:02.864Z,17.50
2023-04-24T06:34:35.224Z,18.90
2023-04-24T06:37:07.902Z,10.90
2023-04-24T06:39:40.582Z,13.80
2023-04-24T06:42:13.199Z,10.70
2023-04-24T06:44:46.087Z,11.80
2023-04-24T06:47:18.130Z,11.10
2023-04-24T06:49:53.700Z,15.20
2023-04-24T06:52:28.966Z,12.90
2023-04-24T06:55:06.052Z,13.80
2023-04-24T06:57:39.034Z,10.90
2023-04-24T07:00:16.629Z,10.40
2023-04-24T07:02:53.891Z,10.60
2023-04-24T07:05:30.417Z,10.10
2023-04-24T07:08:03.039Z,8.70
2023-04-24T07:10:38.163Z,8.90
2023-04-24T07:13:12.677Z,11.50
2023-04-24T07:15:45.020Z,7.80
2023-04-24T07:18:17.287Z,7.60
2023-04-24T07:20:51.218Z,8.70
2023-04-24T07:23:23.978Z,9.00
2023-04-24T07:29:29.542Z,10.40
2023-04-24T07:32:03.915Z,17.60
2023-04-24T07:34:36.564Z,15.30
2023-04-24T07:37:08.864Z,8.00
2023-04-24T07:39:43.838Z,8.80
2023-04-24T07:42:19.086Z,7.50
2023-04-24T07:44:53.568Z,10.50
2023-04-24T07:47:26.184Z,10.00
2023-04-24T07:49:58.728Z,8.00
2023-04-24T07:52:34.049Z,8.40
2023-04-24T07:55:08.160Z,8.10
2023-04-24T07:57:43.364Z,7.10
2023-04-24T08:00:19.541Z,8.90
2023-04-24T08:02:52.061Z,9.00
2023-04-24T08:05:29.872Z,6.70
2023-04-24T08:08:02.630Z,7.40
2023-04-24T08:10:39.066Z,6.70
2023-04-24T08:13:12.579Z,6.60
2023-04-24T08:15:45.033Z,9.50
2023-04-24T08:18:17.302Z,9.40
2023-04-24T08:20:51.692Z,6.50
2023-04-24T08:23:25.088Z,5.90
2023-04-24T08:25:59.819Z,6.90
2023-04-24T08:28:34.081Z,6.70
2023-04-24T08:31:07.401Z,5.70
2023-04-24T08:33:42.042Z,5.10
2023-04-24T08:36:16.997Z,5.70
2023-04-24T08:38:52.600Z,6.20
2023-04-24T08:41:27.885Z,9.90
2023-04-24T08:44:01.113Z,6.30
2023-04-24T08:46:35.342Z,5.80
2023-04-24T08:49:09.215Z,8.30
2023-04-24T08:51:43.936Z,7.70
2023-04-24T08:54:20.401Z,6.30
2023-04-24T08:57:02.970Z,7.10
2023-04-24T08:59:37.651Z,7.10
2023-04-24T09:02:15.186Z,8.40
2023-04-24T09:07:25.221Z,6.80
2023-04-24T09:10:02.410Z,6.90
2023-04-24T09:12:39.129Z,5.20
2023-04-24T09:15:13.805Z,5.30
2023-04-24T09:17:46.305Z,7.70
2023-04-24T09:20:18.714Z,5.80
2023-04-24T09:22:55.826Z,5.40
2023-04-24T09:25:35.264Z,7.80
2023-04-24T09:28:08.352Z,21.90
2023-04-24T09:30:40.616Z,7.40
2023-04-24T09:33:17.403Z,5.00
2023-04-24T09:35:54.220Z,5.00
2023-04-24T09:38:35.146Z,6.60
2023-04-24T09:41:09.914Z,5.60
2023-04-24T09:43:42.169Z,6.10
2023-04-24T09:46:20.922Z,6.70
2023-04-24T09:48:53.294Z,9.00
2023-04-24T09:51:40.914Z,5.50
2023-04-24T09:54:22.295Z,5.10
2023-04-24T09:56:57.314Z,5.90
2023-04-24T09:59:37.471Z,6.10
2023-04-24T10:02:24.140Z,5.90
2023-04-24T10:05:07.587Z,6.40
2023-04-24T10:07:41.449Z,8.70
2023-04-24T10:10:24.667Z,5.30
2023-04-24T10:12:57.734Z,7.10
2023-04-24T10:15:30.118Z,8.70
2023-04-24T10:18:04.350Z,7.60
2023-04-24T10:20:39.968Z,10.50
2023-04-24T10:23:15.337Z,7.00
2023-04-24T10:25:48.133Z,7.20
2023-04-24T10:28:24.248Z,6.00
2023-04-24T10:30:59.604Z,7.00
2023-04-24T10:33:34.986Z,5.00
2023-04-24T10:36:09.357Z,6.60
2023-04-24T10:38:45.469Z,9.30
2023-04-24T10:41:24.458Z,6.40
2023-04-24T10:44:14.527Z,7.40
2023-04-24T10:46:50.873Z,33.60
2023-04-24T10:49:35.338Z,8.60
2023-04-24T10:52:09.955Z,6.60
2023-04-24T10:54:48.844Z,5.80
2023-04-24T10:57:36.330Z,7.20
2023-04-24T11:00:24.126Z,6.30
2023-04-24T11:02:56.683Z,7.00
2023-04-24T11:05:56.499Z,8.90
2023-04-24T11:08:31.509Z,7.40
2023-04-24T11:11:15.846Z,7.80
2023-04-24T11:14:05.686Z,5.00
2023-04-24T11:16:42.054Z,6.30
2023-04-24T11:19:25.064Z,6.60
2023-04-24T11:22:06.006Z,5.70
2023-04-24T11:24:52.058Z,5.60
2023-04-24T11:27:27.385Z,6.20
2023-04-24T11:30:06.137Z,9.60
2023-04-24T11:32:41.260Z,14.70
2023-04-24T11:35:18.623Z,9.20
2023-04-24T11:38:13.074Z,6.40
2023-04-24T11:40:50.774Z,5.80
2023-04-24T11:43:24.459Z,7.20
2023-04-24T11:45:58.518Z,5.30
2023-04-24T11:48:33.969Z,5.10
2023-04-24T12:04:48.122Z,7.50
2023-04-24T12:07:24.362Z,7.40
2023-04-24T12:10:06.942Z,4.80
2023-04-24T12:12:42.858Z,4.90
2023-04-24T12:15:18.225Z,12.00
2023-04-24T12:17:52.872Z,6.30
2023-04-24T12:20:30.723Z,5.10
2023-04-24T12:23:03.964Z,4.70
2023-04-24T12:25:36.816Z,5.20
2023-04-24T12:28:15.253Z,5.10
2023-04-24T12:34:00.869Z,6.50
2023-04-24T12:36:34.917Z,5.10
2023-04-24T12:39:19.572Z,5.40
2023-04-24T12:42:03.296Z,5.90
2023-04-24T12:44:39.690Z,7.30
2023-04-24T12:47:13.440Z,6.60
2023-04-24T12:49:46.473Z,7.00
2023-04-24T12:52:22.743Z,7.40
2023-04-24T12:54:57.246Z,6.70
2023-04-24T12:57:31.129Z,9.60
2023-04-24T13:00:03.961Z,8.90
2023-04-24T13:02:40.164Z,9.20
2023-04-24T13:05:15.405Z,9.50
